Time;durP1;ratioP1;P1;durP2;ratioP2;P2;SDS_P1;SDS_P2;PMS_P1;PMS_P2;Temp;Humidity;BMP_temperature;BMP_pressure;BME280_temperature;BME280_humidity;BME280_pressure;Samples;Min_cycle;Max_cycle;Signal;HPM_P1;HPM_P2
2021/11/23 00:00:00;;;;;;;2.35;1.13;;;21.90;35.00;;;;;;5024387;28;20040;-47
2021/11/23 00:02:27;;;;;;;1.63;0.88;;;21.90;35.00;;;;;;5023667;28;20497;-54
2021/11/23 00:04:53;;;;;;;1.35;0.60;;;21.90;34.90;;;;;;5021527;28;20116;-49
2021/11/23 00:07:19;;;;;;;2.17;1.00;;;21.90;34.90;;;;;;5025574;28;20036;-50
2021/11/23 00:09:45;;;;;;;2.67;1.25;;;21.90;35.00;;;;;;5021642;28;20041;-49
2021/11/23 00:12:11;;;;;;;1.95;1.00;;;21.90;35.00;;;;;;5019029;28;20022;-49
2021/11/23 00:14:37;;;;;;;1.65;0.70;;;21.80;35.00;;;;;;5021503;28;20568;-50
2021/11/23 00:17:03;;;;;;;2.53;1.25;;;21.90;35.10;;;;;;5021791;28;20046;-52
2021/11/23 00:19:29;;;;;;;1.13;0.70;;;21.80;35.00;;;;;;5017954;28;20095;-51
2021/11/23 00:21:55;;;;;;;2.40;0.95;;;21.80;35.10;;;;;;5021118;28;20484;-52
2021/11/23 00:24:21;;;;;;;2.28;1.20;;;21.80;35.00;;;;;;5022897;28;20026;-49
2021/11/23 00:26:46;;;;;;;2.47;1.00;;;21.80;35.00;;;;;;5018294;28;20413;-51
2021/11/23 00:29:12;;;;;;;2.38;1.10;;;21.80;35.00;;;;;;5017830;28;20103;-53
2021/11/23 00:31:38;;;;;;;2.60;0.70;;;21.80;35.00;;;;;;5021607;28;20449;-49
2021/11/23 00:34:04;;;;;;;3.30;1.15;;;21.80;35.00;;;;;;5020816;28;20045;-49
2021/11/23 00:36:30;;;;;;;1.77;0.90;;;21.80;34.90;;;;;;5021777;28;20022;-50
2021/11/23 00:38:56;;;;;;;1.90;0.90;;;21.80;34.90;;;;;;5024217;28;20053;-55
2021/11/23 00:41:25;;;;;;;1.27;0.90;;;21.80;34.90;;;;;;5021331;28;20025;-48
2021/11/23 00:43:51;;;;;;;1.40;0.88;;;21.80;34.90;;;;;;5021595;28;20021;-48
2021/11/23 00:46:18;;;;;;;2.75;1.13;;;21.80;34.90;;;;;;5019596;28;20060;-51
2021/11/23 00:48:43;;;;;;;1.27;0.70;;;21.80;34.90;;;;;;5024805;28;20045;-46
2021/11/23 00:51:10;;;;;;;1.70;1.00;;;21.70;34.90;;;;;;5024589;28;20122;-46
2021/11/23 00:53:36;;;;;;;2.40;1.20;;;21.70;34.90;;;;;;5029892;28;20463;-48
2021/11/23 00:56:04;;;;;;;1.80;1.00;;;21.70;35.50;;;;;;5024831;28;20053;-49
2021/11/23 00:58:31;;;;;;;1.63;1.02;;;21.70;34.90;;;;;;5026131;28;20103;-51
2021/11/23 01:00:57;;;;;;;2.20;1.05;;;21.70;34.90;;;;;;5025421;28;20021;-52
2021/11/23 01:03:23;;;;;;;1.98;0.75;;;21.70;34.90;;;;;;5024878;28;20084;-48
2021/11/23 01:05:50;;;;;;;1.00;0.70;;;21.70;35.00;;;;;;5027219;28;20038;-47
2021/11/23 01:08:19;;;;;;;1.20;0.80;;;21.70;35.00;;;;;;5028949;28;20048;-48
2021/11/23 01:10:45;;;;;;;3.13;0.98;;;21.70;35.00;;;;;;5027208;28;20044;-48
2021/11/23 01:13:11;;;;;;;1.42;0.80;;;21.70;35.00;;;;;;5029587;28;20026;-52
2021/11/23 01:15:38;;;;;;;1.70;0.85;;;21.70;35.00;;;;;;5026240;28;20363;-53
2021/11/23 01:18:04;;;;;;;1.20;0.75;;;21.70;35.10;;;;;;5029412;28;20329;-47
2021/11/23 01:20:31;;;;;;;1.90;0.98;;;21.70;35.10;;;;;;5025625;28;20040;-55
2021/11/23 01:22:58;;;;;;;1.75;0.88;;;21.70;35.10;;;;;;5027724;28;20025;-50
2021/11/23 01:25:25;;;;;;;2.20;0.82;;;21.70;35.20;;;;;;5025121;28;20567;-49
2021/11/23 01:27:51;;;;;;;3.00;0.90;;;21.70;35.20;;;;;;5023679;28;20040;-50
2021/11/23 01:30:17;;;;;;;2.63;1.17;;;21.70;35.20;;;;;;5028280;28;20037;-52
2021/11/23 01:32:43;;;;;;;1.15;0.60;;;21.70;35.20;;;;;;5026490;28;20029;-47
2021/11/23 01:35:12;;;;;;;2.42;0.75;;;21.70;35.20;;;;;;5024495;28;20082;-50
2021/11/23 01:37:39;;;;;;;1.65;1.00;;;21.70;35.20;;;;;;5027990;28;20034;-46
2021/11/23 01:40:07;;;;;;;2.08;0.90;;;21.70;35.20;;;;;;5031705;28;20022;-49
2021/11/23 01:42:32;;;;;;;1.52;0.80;;;21.70;35.20;;;;;;5022436;28;20044;-49
2021/11/23 01:44:58;;;;;;;1.70;1.02;;;21.60;35.20;;;;;;5021191;28;20029;-51
2021/11/23 01:47:24;;;;;;;1.83;0.80;;;21.60;35.20;;;;;;5027353;28;20036;-50
2021/11/23 01:49:50;;;;;;;1.50;0.80;;;21.70;35.30;;;;;;5026087;28;20034;-53
2021/11/23 01:52:16;;;;;;;1.83;0.90;;;21.60;35.30;;;;;;5026927;28;20088;-52
2021/11/23 01:54:42;;;;;;;1.63;0.80;;;21.60;35.30;;;;;;5026475;28;20199;-53
2021/11/23 01:57:09;;;;;;;1.45;0.75;;;21.60;35.30;;;;;;5024735;28;20431;-50
2021/11/23 01:59:34;;;;;;;1.30;0.70;;;21.60;35.30;;;;;;5029286;28;20048;-53
2021/11/23 02:02:00;;;;;;;0.98;0.60;;;21.60;35.40;;;;;;5024715;28;20433;-51
2021/11/23 02:04:26;;;;;;;1.38;0.80;;;21.60;35.40;;;;;;5021635;28;20018;-52
2021/11/23 02:06:52;;;;;;;1.38;0.73;;;21.60;35.40;;;;;;5024291;28;20428;-51
2021/11/23 02:09:18;;;;;;;1.48;0.70;;;21.60;35.40;;;;;;5023668;28;20045;-49
2021/11/23 02:11:44;;;;;;;1.77;0.80;;;21.60;35.40;;;;;;5021454;28;20037;-56
2021/11/23 02:14:10;;;;;;;2.90;0.88;;;21.60;35.50;;;;;;5024059;28;20040;-49
2021/11/23 02:16:37;;;;;;;1.35;0.70;;;21.60;35.50;;;;;;5023688;28;20030;-52
2021/11/23 02:19:04;;;;;;;2.10;0.90;;;21.60;35.50;;;;;;5028103;28;20033;-50
2021/11/23 02:21:30;;;;;;;2.38;0.82;;;21.60;35.60;;;;;;5022312;28;20061;-49
2021/11/23 02:23:58;;;;;;;1.85;0.82;;;21.60;35.60;;;;;;5023223;28;20033;-49
2021/11/23 02:26:24;;;;;;;2.40;1.10;;;21.60;35.60;;;;;;5022741;28;20338;-48
2021/11/23 02:28:50;;;;;;;1.77;0.82;;;21.60;35.70;;;;;;5022167;28;20503;-47
2021/11/23 02:31:16;;;;;;;1.83;0.68;;;21.60;35.70;;;;;;5026911;28;20165;-50
2021/11/23 02:33:41;;;;;;;1.60;0.57;;;21.60;35.70;;;;;;5025268;28;20034;-49
2021/11/23 02:36:10;;;;;;;1.55;0.80;;;21.50;35.60;;;;;;5023604;28;20029;-55
2021/11/23 02:38:37;;;;;;;1.33;0.80;;;21.50;35.60;;;;;;5024713;28;20364;-51
2021/11/23 02:41:06;;;;;;;2.42;1.10;;;21.50;35.70;;;;;;5025884;28;20029;-55
2021/11/23 02:43:32;;;;;;;1.15;0.80;;;21.50;35.70;;;;;;5020835;28;20029;-53
2021/11/23 02:45:58;;;;;;;2.08;1.02;;;21.50;35.70;;;;;;5026367;28;20341;-48
2021/11/23 02:48:24;;;;;;;1.60;0.77;;;21.50;35.80;;;;;;5025398;28;20312;-54
2021/11/23 02:51:34;;;;;;;1.80;1.02;;;21.50;35.70;;;;;;5025683;28;20366;-57
2021/11/23 02:53:39;;;;;;;3.33;1.02;;;21.50;35.70;;;;;;5013424;28;20369;-48
2021/11/23 02:56:05;;;;;;;3.00;0.93;;;21.50;35.70;;;;;;5023469;28;20044;-52
2021/11/23 02:58:33;;;;;;;1.33;0.80;;;21.50;35.70;;;;;;5021985;28;20021;-52
2021/11/23 03:01:02;;;;;;;2.33;1.02;;;21.50;35.70;;;;;;5029201;28;20449;-54
2021/11/23 03:03:28;;;;;;;1.65;1.00;;;21.50;35.70;;;;;;5021461;28;20036;-48
2021/11/23 03:05:57;;;;;;;1.73;1.10;;;21.50;35.70;;;;;;5022715;28;20033;-49
2021/11/23 03:08:24;;;;;;;2.35;1.08;;;21.50;35.70;;;;;;5022381;28;20034;-54
2021/11/23 03:10:49;;;;;;;2.13;1.10;;;21.50;35.70;;;;;;5026091;28;20364;-47
2021/11/23 03:13:15;;;;;;;2.13;0.82;;;21.50;35.70;;;;;;5024123;28;20030;-53
2021/11/23 03:15:41;;;;;;;2.05;1.25;;;21.50;35.70;;;;;;5022599;28;20045;-50
2021/11/23 03:18:09;;;;;;;1.25;0.90;;;21.50;35.70;;;;;;5024966;28;20017;-51
2021/11/23 03:20:36;;;;;;;2.47;0.90;;;21.50;35.70;;;;;;5026696;28;20071;-49
2021/11/23 03:23:03;;;;;;;1.40;1.10;;;21.50;35.70;;;;;;5026049;28;20029;-55
2021/11/23 03:25:30;;;;;;;1.50;0.80;;;21.50;35.70;;;;;;5028570;28;20025;-50
2021/11/23 03:27:56;;;;;;;1.20;0.93;;;21.40;35.60;;;;;;5021068;28;20400;-56
2021/11/23 03:30:27;;;;;;;3.75;1.20;;;21.40;35.60;;;;;;5024065;28;20041;-50
2021/11/23 03:32:54;;;;;;;1.63;1.00;;;21.40;35.60;;;;;;5027181;28;20021;-48
2021/11/23 03:35:26;;;;;;;2.25;1.33;;;21.40;35.70;;;;;;5024881;28;20033;-54
2021/11/23 03:37:53;;;;;;;2.00;1.00;;;21.40;35.70;;;;;;5020153;28;20373;-49
2021/11/23 03:40:21;;;;;;;2.70;1.40;;;21.40;35.70;;;;;;5022270;28;20114;-53
2021/11/23 03:42:47;;;;;;;2.05;1.25;;;21.40;35.70;;;;;;5022769;28;20032;-49
2021/11/23 03:45:12;;;;;;;2.40;1.27;;;21.40;35.70;;;;;;5025286;28;20037;-54
2021/11/23 03:47:39;;;;;;;2.42;1.17;;;21.40;35.70;;;;;;5022168;28;20025;-50
2021/11/23 03:50:11;;;;;;;2.33;1.42;;;21.40;35.70;;;;;;5019595;28;20119;-53
2021/11/23 03:52:37;;;;;;;1.52;1.20;;;21.40;35.70;;;;;;5023904;28;20160;-54
2021/11/23 03:55:07;;;;;;;2.53;1.33;;;21.40;35.70;;;;;;5020573;28;20042;-54
2021/11/23 03:57:32;;;;;;;2.80;1.05;;;21.40;35.70;;;;;;5024039;28;20133;-52
2021/11/23 03:59:58;;;;;;;1.50;1.20;;;21.40;35.70;;;;;;5025616;28;20136;-53
2021/11/23 04:02:25;;;;;;;1.92;0.98;;;21.40;35.70;;;;;;5021945;28;20357;-53
2021/11/23 04:04:52;;;;;;;1.88;1.20;;;21.40;35.70;;;;;;5018570;28;20029;-48
2021/11/23 04:07:18;;;;;;;2.13;1.25;;;21.40;35.70;;;;;;5024575;28;20034;-48
2021/11/23 04:09:44;;;;;;;2.28;1.10;;;21.40;35.70;;;;;;5018497;28;20445;-54
2021/11/23 04:12:11;;;;;;;2.03;1.13;;;21.40;35.70;;;;;;5021906;28;20047;-53
2021/11/23 04:14:38;;;;;;;2.55;1.20;;;21.40;35.70;;;;;;5020535;28;20029;-52
2021/11/23 04:17:04;;;;;;;2.40;1.38;;;21.40;35.70;;;;;;5021848;28;20352;-51
2021/11/23 04:19:30;;;;;;;1.73;1.20;;;21.30;35.70;;;;;;5020811;28;20100;-46
2021/11/23 04:22:00;;;;;;;1.10;0.85;;;21.30;35.70;;;;;;5023959;28;20438;-53
2021/11/23 04:24:27;;;;;;;1.13;1.00;;;21.40;35.80;;;;;;5023661;28;20092;-45
2021/11/23 04:26:55;;;;;;;1.38;0.95;;;21.30;35.80;;;;;;5027376;28;20776;-56
2021/11/23 04:29:22;;;;;;;2.00;1.23;;;21.30;35.80;;;;;;5030455;28;20037;-47
2021/11/23 04:31:49;;;;;;;1.85;0.90;;;21.30;35.80;;;;;;5021833;28;20052;-48
2021/11/23 04:34:15;;;;;;;1.67;1.30;;;21.30;35.80;;;;;;5026667;28;20468;-51
2021/11/23 04:36:41;;;;;;;1.75;1.10;;;21.30;35.90;;;;;;5022817;28;20060;-52
2021/11/23 04:39:10;;;;;;;1.80;1.17;;;21.30;35.90;;;;;;5029017;28;20052;-50
2021/11/23 04:41:36;;;;;;;2.30;1.40;;;21.30;35.90;;;;;;5026403;28;20029;-50
2021/11/23 04:44:02;;;;;;;1.65;1.17;;;21.30;35.90;;;;;;5027693;28;20029;-54
2021/11/23 04:46:28;;;;;;;1.73;1.17;;;21.30;35.90;;;;;;5024978;28;20034;-53
2021/11/23 04:48:54;;;;;;;1.98;1.20;;;21.30;35.90;;;;;;5024093;28;20113;-52
2021/11/23 04:51:22;;;;;;;2.17;1.13;;;21.30;35.90;;;;;;5025308;28;20037;-50
2021/11/23 04:53:48;;;;;;;2.53;1.20;;;21.30;36.70;;;;;;5025945;28;20368;-55
2021/11/23 04:56:14;;;;;;;2.00;1.00;;;21.30;36.10;;;;;;5025936;28;20041;-48
2021/11/23 04:58:40;;;;;;;1.90;1.20;;;21.30;36.20;;;;;;5026692;28;20030;-49
2021/11/23 05:01:06;;;;;;;2.42;1.00;;;21.30;36.20;;;;;;5024067;28;20087;-54
2021/11/23 05:03:32;;;;;;;1.58;1.10;;;21.30;36.30;;;;;;5026045;28;20037;-49
2021/11/23 05:05:59;;;;;;;2.20;1.35;;;21.30;36.30;;;;;;5019500;28;20052;-48
2021/11/23 05:08:25;;;;;;;1.77;1.00;;;21.30;36.30;;;;;;5025463;28;20033;-53
2021/11/23 05:10:51;;;;;;;1.40;0.77;;;21.20;36.30;;;;;;5024799;28;20348;-51
2021/11/23 05:13:16;;;;;;;1.73;1.08;;;21.30;36.30;;;;;;5025966;28;20110;-48
2021/11/23 05:15:42;;;;;;;1.52;0.93;;;21.30;36.40;;;;;;5020038;28;20117;-51
2021/11/23 05:18:08;;;;;;;2.00;1.25;;;21.30;36.40;;;;;;5025297;28;20025;-50
2021/11/23 05:20:34;;;;;;;1.92;1.30;;;21.30;36.40;;;;;;5024064;28;20379;-51
2021/11/23 05:22:59;;;;;;;2.58;1.30;;;21.30;36.40;;;;;;5026939;28;20496;-51
2021/11/23 05:25:25;;;;;;;1.88;1.00;;;21.30;36.40;;;;;;5025961;28;20428;-48
2021/11/23 05:27:51;;;;;;;1.95;1.10;;;21.30;36.40;;;;;;5023347;28;20022;-46
2021/11/23 05:30:18;;;;;;;2.20;1.20;;;21.20;36.40;;;;;;5021713;28;20464;-48
2021/11/23 05:32:44;;;;;;;2.78;1.50;;;21.30;36.40;;;;;;5028848;28;20075;-48
2021/11/23 05:35:11;;;;;;;1.85;1.10;;;21.30;36.40;;;;;;5018077;28;20079;-49
2021/11/23 05:37:37;;;;;;;1.58;1.00;;;21.30;36.40;;;;;;5029999;28;20475;-56
2021/11/23 05:40:05;;;;;;;1.05;0.90;;;21.20;36.40;;;;;;5025839;28;20038;-48
2021/11/23 05:42:31;;;;;;;1.45;1.10;;;21.20;36.40;;;;;;5024484;28;20117;-51
2021/11/23 05:44:57;;;;;;;2.17;1.00;;;21.20;36.50;;;;;;5032600;28;20449;-48
2021/11/23 05:47:24;;;;;;;1.77;1.02;;;21.20;36.40;;;;;;5025838;28;20045;-57
2021/11/23 05:49:51;;;;;;;1.40;1.00;;;21.20;36.50;;;;;;5016560;28;20065;-50
2021/11/23 05:52:18;;;;;;;1.40;0.85;;;21.20;36.50;;;;;;5024710;28;20030;-51
2021/11/23 05:54:45;;;;;;;2.03;1.15;;;21.20;36.50;;;;;;5028934;28;20353;-51
2021/11/23 05:57:12;;;;;;;1.95;1.00;;;21.20;36.50;;;;;;5028038;28;20073;-52
2021/11/23 05:59:38;;;;;;;1.92;1.10;;;21.20;36.50;;;;;;5033329;28;20034;-51
2021/11/23 06:02:04;;;;;;;1.70;1.00;;;21.20;36.50;;;;;;5023693;28;20026;-56
2021/11/23 06:04:30;;;;;;;1.90;0.90;;;21.20;36.50;;;;;;5026135;28;20396;-52
2021/11/23 06:06:56;;;;;;;2.83;1.20;;;21.20;36.60;;;;;;5029133;28;20044;-53
2021/11/23 06:09:22;;;;;;;2.03;1.10;;;21.20;36.60;;;;;;5023684;28;20045;-51
2021/11/23 06:11:48;;;;;;;1.58;0.90;;;21.20;36.60;;;;;;5034758;28;20097;-55
2021/11/23 06:14:13;;;;;;;1.73;1.00;;;21.20;36.60;;;;;;5025592;28;20353;-52
2021/11/23 06:16:44;;;;;;;1.92;0.90;;;21.20;36.70;;;;;;5028880;28;21264;-49
2021/11/23 06:19:10;;;;;;;1.38;1.00;;;21.20;36.70;;;;;;5022031;28;20021;-53
2021/11/23 06:21:36;;;;;;;2.05;0.90;;;21.20;36.70;;;;;;5018180;28;20033;-53
2021/11/23 06:24:02;;;;;;;2.67;1.25;;;21.20;36.80;;;;;;5019869;28;20096;-49
2021/11/23 06:26:28;;;;;;;1.52;0.93;;;21.20;36.80;;;;;;5025073;28;20109;-50
2021/11/23 06:28:54;;;;;;;2.10;1.27;;;21.20;36.90;;;;;;5016214;28;20058;-49
2021/11/23 06:31:19;;;;;;;1.38;0.90;;;21.20;36.90;;;;;;5021715;28;20390;-53
2021/11/23 06:33:46;;;;;;;1.88;0.90;;;21.20;37.00;;;;;;5026560;28;20037;-53
2021/11/23 06:36:12;;;;;;;1.40;0.90;;;21.20;37.00;;;;;;5033300;28;20078;-52
2021/11/23 06:38:37;;;;;;;1.63;1.00;;;21.20;37.10;;;;;;5032797;28;20116;-49
2021/11/23 06:41:03;;;;;;;1.60;1.13;;;21.20;37.10;;;;;;5019618;28;20057;-55
2021/11/23 06:43:29;;;;;;;1.67;1.08;;;21.20;37.20;;;;;;5020535;28;20031;-48
2021/11/23 06:45:55;;;;;;;1.77;1.00;;;21.20;37.20;;;;;;5035332;28;20445;-52
2021/11/23 06:48:21;;;;;;;2.40;1.08;;;21.20;37.20;;;;;;5031856;28;20045;-54
2021/11/23 06:50:47;;;;;;;1.75;1.05;;;21.10;37.20;;;;;;5034585;28;20045;-51
2021/11/23 06:53:13;;;;;;;2.17;0.93;;;21.20;37.40;;;;;;5021064;28;20140;-49
2021/11/23 06:55:41;;;;;;;1.70;1.00;;;21.20;37.40;;;;;;5025936;28;20031;-54
2021/11/23 06:58:07;;;;;;;2.90;0.90;;;21.20;37.40;;;;;;5020447;28;20120;-48
2021/11/23 07:00:34;;;;;;;1.83;0.98;;;21.20;37.50;;;;;;5017683;28;20361;-55
2021/11/23 07:03:00;;;;;;;1.35;0.73;;;21.20;37.50;;;;;;5021485;28;20030;-47
2021/11/23 07:05:26;;;;;;;1.50;0.68;;;21.20;37.60;;;;;;5026530;28;20036;-51
2021/11/23 07:07:52;;;;;;;2.13;0.70;;;21.10;37.60;;;;;;5018995;28;20361;-54
2021/11/23 07:10:19;;;;;;;1.85;0.90;;;21.20;37.70;;;;;;5025270;28;20044;-49
2021/11/23 07:12:44;;;;;;;1.70;0.93;;;21.20;37.70;;;;;;5032566;28;20025;-54
2021/11/23 07:15:11;;;;;;;2.35;0.90;;;21.20;37.80;;;;;;5019072;28;20087;-53
2021/11/23 07:17:37;;;;;;;2.05;1.02;;;21.20;37.80;;;;;;5016483;28;20034;-56
2021/11/23 07:20:04;;;;;;;1.58;0.70;;;21.20;37.90;;;;;;5016790;28;20054;-50
2021/11/23 07:22:30;;;;;;;2.53;0.77;;;21.20;37.90;;;;;;5014861;28;20033;-50
2021/11/23 07:24:56;;;;;;;0.98;0.60;;;21.10;37.90;;;;;;5023852;28;20340;-52
2021/11/23 07:27:22;;;;;;;2.20;1.00;;;21.10;37.90;;;;;;5035117;28;20026;-53
2021/11/23 07:29:48;;;;;;;1.48;0.70;;;21.20;38.00;;;;;;5023825;28;20029;-50
2021/11/23 07:32:13;;;;;;;2.25;0.70;;;21.20;38.10;;;;;;5020176;28;20056;-51
2021/11/23 07:34:40;;;;;;;1.40;0.60;;;21.20;38.10;;;;;;5024645;28;20045;-52
2021/11/23 07:37:06;;;;;;;2.92;0.60;;;21.20;38.10;;;;;;5019723;28;20393;-51
2021/11/23 07:39:32;;;;;;;1.35;0.77;;;21.20;38.20;;;;;;5025473;28;20409;-55
2021/11/23 07:41:58;;;;;;;1.00;0.80;;;21.20;38.20;;;;;;5033391;28;20516;-54
2021/11/23 07:44:24;;;;;;;2.97;1.00;;;21.20;38.10;;;;;;5025179;28;20036;-52
2021/11/23 07:46:50;;;;;;;1.20;0.60;;;21.20;38.10;;;;;;5013426;28;20056;-52
2021/11/23 07:49:16;;;;;;;1.45;0.70;;;21.30;38.20;;;;;;5030110;28;20437;-58
2021/11/23 07:51:42;;;;;;;1.42;0.75;;;21.30;38.10;;;;;;5029185;28;20045;-55
2021/11/23 07:54:10;;;;;;;0.82;0.55;;;21.30;38.10;;;;;;5025402;28;20404;-52
2021/11/23 07:56:36;;;;;;;0.88;0.50;;;21.40;38.10;;;;;;5020441;28;20450;-49
2021/11/23 07:59:03;;;;;;;1.77;0.80;;;21.50;38.00;;;;;;5026415;28;20338;-51
2021/11/23 08:01:29;;;;;;;1.10;0.50;;;21.50;37.90;;;;;;5018202;28;20434;-50
2021/11/23 08:03:54;;;;;;;1.30;0.60;;;21.60;37.90;;;;;;5032394;28;20080;-52
2021/11/23 08:06:20;;;;;;;1.00;0.60;;;21.70;37.90;;;;;;5024943;28;20034;-47
2021/11/23 08:08:46;;;;;;;0.98;0.60;;;21.70;37.80;;;;;;5029985;28;20029;-50
2021/11/23 08:11:13;;;;;;;0.60;0.30;;;21.80;37.80;;;;;;5027713;28;20041;-48
2021/11/23 08:13:39;;;;;;;0.70;0.50;;;21.90;37.80;;;;;;5026692;28;20022;-54
2021/11/23 08:16:05;;;;;;;0.45;0.30;;;21.90;37.80;;;;;;5023671;28;20330;-54
2021/11/23 08:18:33;;;;;;;0.80;0.60;;;22.00;37.70;;;;;;5018056;28;20108;-56
2021/11/23 08:21:00;;;;;;;0.95;0.43;;;22.00;37.70;;;;;;5026368;28;20030;-55
2021/11/23 08:23:25;;;;;;;1.15;0.60;;;22.10;37.70;;;;;;5019665;28;20032;-53
2021/11/23 08:25:53;;;;;;;0.90;0.40;;;22.10;37.70;;;;;;5016038;28;20021;-54
2021/11/23 08:28:20;;;;;;;0.77;0.50;;;22.20;37.70;;;;;;5018822;28;20056;-50
2021/11/23 08:30:46;;;;;;;1.02;0.45;;;22.20;37.60;;;;;;5014174;28;20140;-52
2021/11/23 08:33:13;;;;;;;1.20;0.63;;;22.30;37.60;;;;;;5031683;28;20072;-51
2021/11/23 08:35:39;;;;;;;1.33;0.68;;;22.30;37.50;;;;;;5031157;28;20033;-50
2021/11/23 08:38:05;;;;;;;0.65;0.50;;;22.30;37.50;;;;;;5024029;28;20025;-53
2021/11/23 08:40:31;;;;;;;1.27;0.60;;;22.40;37.40;;;;;;5024972;28;20116;-52
2021/11/23 08:42:58;;;;;;;1.23;0.80;;;22.40;37.30;;;;;;5023978;28;20030;-54
2021/11/23 08:45:24;;;;;;;1.70;0.70;;;22.50;37.30;;;;;;5015637;28;20068;-57
2021/11/23 08:47:51;;;;;;;1.95;0.80;;;22.50;37.20;;;;;;5023533;28;20021;-54
2021/11/23 08:50:18;;;;;;;1.77;0.98;;;22.60;37.20;;;;;;5022347;28;20029;-51
2021/11/23 08:52:44;;;;;;;1.55;0.90;;;22.60;37.10;;;;;;5029177;28;20033;-55
2021/11/23 08:55:10;;;;;;;1.02;0.70;;;22.70;37.00;;;;;;5020699;28;20052;-53
2021/11/23 08:57:36;;;;;;;2.75;0.80;;;22.70;37.00;;;;;;5024385;28;20069;-52
2021/11/23 09:00:16;;;;;;;1.45;0.85;;;22.70;36.90;;;;;;5019570;28;20173;-55
2021/11/23 09:02:44;;;;;;;1.20;0.80;;;22.80;36.90;;;;;;5022896;28;20397;-57
2021/11/23 09:05:11;;;;;;;1.38;1.05;;;22.80;36.90;;;;;;5019367;28;20026;-49
2021/11/23 09:07:39;;;;;;;1.30;0.80;;;22.80;36.90;;;;;;5034121;28;20108;-53
2021/11/23 09:10:06;;;;;;;1.05;0.65;;;22.90;36.90;;;;;;5024214;28;20400;-55
2021/11/23 09:12:33;;;;;;;0.85;0.70;;;22.90;36.90;;;;;;5026251;28;20037;-51
2021/11/23 09:14:59;;;;;;;1.02;0.80;;;22.90;36.90;;;;;;5034295;28;20040;-48
2021/11/23 09:17:24;;;;;;;0.70;0.60;;;22.90;36.90;;;;;;5032960;28;20033;-53
2021/11/23 09:19:50;;;;;;;0.93;0.57;;;22.90;36.80;;;;;;5036526;28;20042;-51
2021/11/23 09:22:16;;;;;;;1.00;0.68;;;22.90;36.80;;;;;;5037423;28;20103;-47
2021/11/23 09:24:42;;;;;;;1.38;0.65;;;22.90;36.80;;;;;;5027431;28;20114;-50
2021/11/23 09:27:08;;;;;;;1.65;0.70;;;22.90;36.90;;;;;;5030419;28;20056;-48
2021/11/23 09:29:33;;;;;;;1.23;0.80;;;23.00;36.90;;;;;;5022990;28;20029;-48
2021/11/23 09:32:00;;;;;;;1.33;0.80;;;22.90;36.90;;;;;;5019851;28;20102;-54
2021/11/23 09:34:26;;;;;;;1.23;0.88;;;23.00;36.90;;;;;;5030004;28;20034;-52
2021/11/23 09:36:54;;;;;;;1.63;0.93;;;22.90;36.90;;;;;;5036340;28;20041;-46
2021/11/23 09:39:20;;;;;;;2.47;1.00;;;22.90;37.00;;;;;;5034364;28;20444;-44
2021/11/23 09:41:46;;;;;;;2.13;0.90;;;22.80;37.00;;;;;;5018580;28;20345;-51
2021/11/23 09:44:12;;;;;;;1.67;0.80;;;22.80;37.30;;;;;;5021813;28;20038;-55
2021/11/23 09:46:39;;;;;;;1.70;0.80;;;22.70;37.40;;;;;;5022425;28;20096;-50
2021/11/23 09:49:07;;;;;;;2.30;0.95;;;22.60;37.60;;;;;;5030248;28;20129;-51
2021/11/23 09:51:35;;;;;;;1.55;1.10;;;22.50;37.70;;;;;;5026373;28;20034;-53
2021/11/23 09:54:04;;;;;;;1.88;1.10;;;22.40;37.90;;;;;;5035047;28;20071;-50
2021/11/23 09:56:30;;;;;;;2.13;1.30;;;22.30;38.00;;;;;;5036301;28;20120;-49
2021/11/23 09:58:56;;;;;;;1.73;0.95;;;22.30;38.10;;;;;;5034096;28;20129;-46
2021/11/23 10:01:29;;;;;;;1.67;0.95;;;22.30;38.20;;;;;;5028655;28;20041;-50
2021/11/23 10:03:58;;;;;;;2.20;1.33;;;22.30;38.20;;;;;;5022499;28;20064;-52
2021/11/23 10:06:25;;;;;;;2.47;1.15;;;22.30;38.20;;;;;;5015994;28;20061;-47
2021/11/23 10:08:55;;;;;;;1.25;0.85;;;22.30;38.10;;;;;;5018646;28;20030;-51
2021/11/23 10:11:30;;;;;;;2.47;1.52;;;22.30;38.20;;;;;;5020396;28;20096;-51
2021/11/23 10:13:57;;;;;;;;;;;22.20;38.20;;;;;;5018588;28;20048;-51
2021/11/23 10:16:24;;;;;;;2.28;1.15;;;22.20;38.30;;;;;;5032485;28;19963;-54
2021/11/23 10:18:53;;;;;;;2.05;1.15;;;22.10;38.40;;;;;;5025829;28;20327;-48
2021/11/23 10:21:25;;;;;;;1.73;1.20;;;22.20;38.50;;;;;;5034822;28;20131;-49
2021/11/23 10:23:55;;;;;;;1.73;0.90;;;22.10;38.50;;;;;;5034456;28;20405;-53
2021/11/23 10:26:31;;;;;;;1.80;1.00;;;22.10;38.50;;;;;;5035220;28;20104;-52
2021/11/23 10:29:05;;;;;;;1.40;0.75;;;22.10;38.60;;;;;;5031721;28;20382;-55
2021/11/23 10:31:40;;;;;;;1.08;0.70;;;22.10;38.70;;;;;;5029213;28;20044;-53
2021/11/23 10:34:09;;;;;;;0.73;0.60;;;22.00;38.70;;;;;;5032728;28;20033;-49
2021/11/23 10:36:38;;;;;;;1.83;0.90;;;22.00;38.80;;;;;;5034686;28;20072;-48
2021/11/23 10:39:09;;;;;;;1.13;0.52;;;22.00;38.90;;;;;;5021181;28;20018;-48
2021/11/23 10:41:36;;;;;;;0.80;0.60;;;22.00;38.90;;;;;;5021445;28;20491;-46
2021/11/23 10:44:03;;;;;;;1.33;0.70;;;21.90;38.90;;;;;;5016377;28;20030;-51
2021/11/23 10:46:31;;;;;;;0.57;0.50;;;21.90;39.00;;;;;;5031827;28;20033;-49
2021/11/23 10:49:02;;;;;;;1.88;0.60;;;21.90;39.00;;;;;;5034205;28;20029;-52
2021/11/23 10:51:40;;;;;;;1.17;0.70;;;21.90;39.10;;;;;;5017324;28;20042;-47
2021/11/23 10:54:14;;;;;;;0.93;0.50;;;21.90;39.10;;;;;;5016866;28;20196;-50
2021/11/23 10:57:01;;;;;;;1.85;0.80;;;21.80;39.20;;;;;;5034600;28;20117;-49
2021/11/23 10:59:27;;;;;;;0.95;0.60;;;21.80;39.20;;;;;;5032110;28;20118;-51
2021/11/23 11:01:55;;;;;;;2.13;0.70;;;21.80;39.30;;;;;;5020746;28;20037;-51
2021/11/23 11:04:22;;;;;;;1.33;0.75;;;21.80;39.40;;;;;;5020687;28;20049;-52
2021/11/23 11:06:53;;;;;;;1.17;0.60;;;21.80;39.50;;;;;;5019279;28;20032;-52
2021/11/23 11:09:20;;;;;;;1.30;0.63;;;21.80;39.50;;;;;;5026889;28;20318;-50
2021/11/23 11:11:47;;;;;;;1.10;0.60;;;21.70;39.60;;;;;;5020658;28;20342;-51
2021/11/23 11:14:15;;;;;;;0.90;0.60;;;21.70;39.70;;;;;;5018480;28;20034;-51
2021/11/23 11:16:41;;;;;;;0.88;0.60;;;21.70;39.70;;;;;;5022819;28;20030;-51
2021/11/23 11:19:12;;;;;;;2.40;0.80;;;21.70;39.90;;;;;;5025388;28;20026;-51
2021/11/23 11:21:47;;;;;;;1.20;0.70;;;21.70;39.90;;;;;;5022506;28;20088;-49
2021/11/23 11:24:44;;;;;;;1.65;0.70;;;21.70;40.00;;;;;;5033930;28;20429;-46
2021/11/23 11:27:32;;;;;;;1.95;0.60;;;21.70;40.10;;;;;;5030162;28;20029;-49
2021/11/23 11:30:23;;;;;;;1.40;0.60;;;21.70;40.10;;;;;;5032198;28;20042;-48
2021/11/23 11:32:51;;;;;;;3.47;0.60;;;21.80;40.30;;;;;;5024966;28;20040;-48
2021/11/23 11:35:26;;;;;;;0.93;0.57;;;21.70;40.30;;;;;;5014382;28;20476;-46
2021/11/23 11:38:04;;;;;;;2.33;0.40;;;21.80;40.50;;;;;;5019601;28;20037;-49
2021/11/23 11:40:42;;;;;;;1.02;0.50;;;21.80;40.60;;;;;;5028295;28;20036;-52
2021/11/23 11:43:10;;;;;;;3.88;0.63;;;21.90;40.70;;;;;;5026917;28;20033;-47
2021/11/23 11:45:43;;;;;;;2.67;0.47;;;21.80;40.60;;;;;;5026986;28;20037;-47
2021/11/23 11:48:36;;;;;;;1.25;0.60;;;21.90;40.70;;;;;;5029345;28;20077;-48
2021/11/23 11:51:32;;;;;;;1.35;0.50;;;21.90;40.70;;;;;;5021989;28;20058;-52
2021/11/23 11:54:18;;;;;;;0.85;0.50;;;21.90;40.80;;;;;;5015193;28;20033;-54
2021/11/23 11:56:47;;;;;;;0.80;0.45;;;21.90;40.90;;;;;;5017806;28;20080;-48
2021/11/23 11:59:18;;;;;;;1.45;0.50;;;21.90;41.00;;;;;;5015964;28;20041;-53
2021/11/23 12:01:52;;;;;;;0.88;0.50;;;21.90;41.00;;;;;;5020292;28;20029;-47
2021/11/23 12:04:21;;;;;;;0.90;0.60;;;21.90;41.00;;;;;;5030526;28;20034;-48
2021/11/23 12:06:56;;;;;;;0.93;0.38;;;21.90;41.00;;;;;;5025415;28;20021;-50
2021/11/23 12:09:34;;;;;;;0.60;0.40;;;22.00;41.10;;;;;;5030945;28;20045;-54
2021/11/23 12:12:08;;;;;;;0.93;0.47;;;22.00;41.10;;;;;;5021939;28;20141;-54
2021/11/23 12:14:52;;;;;;;1.00;0.50;;;22.00;41.20;;;;;;5015843;28;20060;-48
2021/11/23 12:17:25;;;;;;;0.90;0.38;;;22.00;41.20;;;;;;5019590;28;20036;-52
2021/11/23 12:20:07;;;;;;;1.43;0.60;;;22.00;41.30;;;;;;5026024;28;20045;-52
2021/11/23 12:22:52;;;;;;;1.15;0.60;;;22.10;41.40;;;;;;5028409;28;20029;-53
2021/11/23 12:25:22;;;;;;;4.95;0.90;;;22.10;41.40;;;;;;5025679;28;20121;-49
2021/11/23 12:27:50;;;;;;;1.17;0.60;;;22.10;41.50;;;;;;5014847;28;20030;-49
2021/11/23 12:30:19;;;;;;;1.75;0.60;;;22.10;41.50;;;;;;5022587;28;20106;-53
2021/11/23 12:32:46;;;;;;;1.48;0.60;;;22.10;41.40;;;;;;5022715;28;20033;-48
2021/11/23 12:35:16;;;;;;;0.77;0.50;;;22.10;41.30;;;;;;5020493;28;20449;-47
2021/11/23 12:37:45;;;;;;;3.58;0.75;;;22.20;41.20;;;;;;5034327;28;20037;-54
2021/11/23 12:40:24;;;;;;;1.23;0.50;;;22.20;41.10;;;;;;5023453;28;20069;-48
2021/11/23 12:42:53;;;;;;;1.10;0.52;;;22.20;41.00;;;;;;5014053;28;20025;-53
2021/11/23 12:45:41;;;;;;;1.38;0.60;;;22.20;40.90;;;;;;5024496;28;20033;-49
2021/11/23 12:48:28;;;;;;;1.20;0.70;;;22.30;40.80;;;;;;5025036;28;20359;-47
2021/11/23 12:50:55;;;;;;;0.40;0.30;;;22.20;40.70;;;;;;5032493;28;20403;-52